createdAt,value
2023-02-06T00:02:13.293Z,3.10
2023-02-06T00:04:41.441Z,2.90
2023-02-06T00:07:08.543Z,2.80
2023-02-06T00:09:35.561Z,2.70
2023-02-06T00:12:02.737Z,2.70
2023-02-06T00:14:29.876Z,2.60
2023-02-06T00:16:56.904Z,2.60
2023-02-06T00:19:24.032Z,2.50
2023-02-06T00:21:51.356Z,2.50
2023-02-06T00:24:18.411Z,2.50
2023-02-06T00:26:45.811Z,2.60
2023-02-06T00:29:13.358Z,2.70
2023-02-06T00:31:40.711Z,2.70
2023-02-06T00:34:08.199Z,2.70
2023-02-06T00:36:35.512Z,2.90
2023-02-06T00:39:02.995Z,3.00
2023-02-06T00:41:30.066Z,3.10
2023-02-06T00:43:57.106Z,3.20
2023-02-06T00:46:24.209Z,3.30
2023-02-06T00:48:51.278Z,3.30
2023-02-06T00:51:18.322Z,3.20
2023-02-06T00:53:50.988Z,3.00
2023-02-06T00:56:18.407Z,2.80
2023-02-06T00:58:45.642Z,2.70
2023-02-06T01:01:13.183Z,2.60
2023-02-06T01:03:40.342Z,2.50
2023-02-06T01:06:08.256Z,2.50
2023-02-06T01:08:35.336Z,2.50
2023-02-06T01:11:02.500Z,2.40
2023-02-06T01:13:29.634Z,2.30
2023-02-06T01:15:56.894Z,2.20
2023-02-06T01:18:24.384Z,2.20
2023-02-06T01:20:51.569Z,2.10
2023-02-06T01:23:18.746Z,2.10
2023-02-06T01:25:54.704Z,2.00
2023-02-06T01:28:25.097Z,2.10
2023-02-06T01:30:52.205Z,2.00
2023-02-06T01:33:19.535Z,1.90
2023-02-06T01:35:46.628Z,1.90
2023-02-06T01:38:13.717Z,1.90
2023-02-06T01:40:41.011Z,1.90
2023-02-06T01:43:15.400Z,1.90
2023-02-06T01:45:45.743Z,1.90
2023-02-06T01:48:19.146Z,1.80
2023-02-06T01:50:48.440Z,1.80
2023-02-06T01:53:15.560Z,1.70
2023-02-06T01:55:42.562Z,1.70
2023-02-06T01:58:10.033Z,1.70
2023-02-06T02:00:37.139Z,1.70
2023-02-06T02:03:04.215Z,1.60
2023-02-06T02:05:33.498Z,1.70
2023-02-06T02:08:09.607Z,1.60
2023-02-06T02:10:36.720Z,1.60
2023-02-06T02:13:03.884Z,1.60
2023-02-06T02:15:46.994Z,1.60
2023-02-06T02:18:29.203Z,1.50
2023-02-06T02:21:15.414Z,1.60
2023-02-06T02:23:42.415Z,1.60
2023-02-06T02:26:31.086Z,1.60
2023-02-06T02:29:04.078Z,1.60
2023-02-06T02:31:46.500Z,1.50
2023-02-06T02:34:35.284Z,1.40
2023-02-06T02:37:18.065Z,1.40
2023-02-06T02:40:09.567Z,1.40
2023-02-06T02:43:04.626Z,1.40
2023-02-06T02:45:45.202Z,1.40
2023-02-06T02:48:26.929Z,1.30
2023-02-06T02:50:54.533Z,1.30
2023-02-06T02:53:22.059Z,1.20
2023-02-06T02:55:49.365Z,1.20
2023-02-06T02:58:18.735Z,1.20
2023-02-06T03:00:49.515Z,1.20
2023-02-06T03:03:17.526Z,1.20
2023-02-06T03:06:13.533Z,1.20
2023-02-06T03:08:52.400Z,1.20
2023-02-06T03:11:19.710Z,1.20
2023-02-06T03:14:10.500Z,1.20
2023-02-06T03:16:47.554Z,1.20
2023-02-06T03:19:19.576Z,1.20
2023-02-06T03:21:46.618Z,1.20
2023-02-06T03:24:15.802Z,1.10
2023-02-06T03:26:42.955Z,1.10
2023-02-06T03:29:11.539Z,1.10
2023-02-06T03:31:52.029Z,1.10
2023-02-06T03:34:26.542Z,0.90
2023-02-06T03:36:53.591Z,0.90
2023-02-06T03:39:21.078Z,0.90
2023-02-06T03:41:49.319Z,0.80
2023-02-06T03:44:19.245Z,0.80
2023-02-06T03:46:48.493Z,0.90
2023-02-06T03:49:16.350Z,0.90
2023-02-06T03:51:46.141Z,0.80
2023-02-06T03:54:14.313Z,0.80
2023-02-06T03:56:47.365Z,0.90
2023-02-06T03:59:14.777Z,0.90
2023-02-06T04:01:47.806Z,0.80
2023-02-06T04:04:16.638Z,0.80
2023-02-06T04:06:43.701Z,0.80
2023-02-06T04:09:10.796Z,0.80
2023-02-06T04:11:37.855Z,0.70
2023-02-06T04:14:04.907Z,0.70
2023-02-06T04:16:31.991Z,0.60
2023-02-06T04:18:59.028Z,0.60
2023-02-06T04:21:26.097Z,0.60
2023-02-06T04:23:53.335Z,0.60
2023-02-06T04:26:20.481Z,0.60
2023-02-06T04:28:47.487Z,0.70
2023-02-06T04:31:14.757Z,0.60
2023-02-06T04:33:42.003Z,0.50
2023-02-06T04:36:09.234Z,0.50
2023-02-06T04:38:36.379Z,0.60
2023-02-06T04:41:04.579Z,0.40
2023-02-06T04:43:32.253Z,0.30
2023-02-06T04:45:59.400Z,0.30
2023-02-06T04:48:26.731Z,0.30
2023-02-06T04:50:53.751Z,0.40
2023-02-06T04:53:20.769Z,0.50
2023-02-06T04:55:47.895Z,0.40
2023-02-06T04:58:15.028Z,0.40
2023-02-06T05:00:42.089Z,0.40
2023-02-06T05:03:09.275Z,0.50
2023-02-06T05:05:36.766Z,0.60
2023-02-06T05:08:04.010Z,0.60
2023-02-06T05:10:31.134Z,0.60
2023-02-06T05:12:58.326Z,0.60
2023-02-06T05:15:29.462Z,0.70
2023-02-06T05:17:56.589Z,0.70
2023-02-06T05:20:26.338Z,0.60
2023-02-06T05:22:53.588Z,0.70
2023-02-06T05:25:21.997Z,0.80
2023-02-06T05:27:49.136Z,0.80
2023-02-06T05:30:16.385Z,1.00
2023-02-06T05:32:45.968Z,0.90
2023-02-06T05:35:13.010Z,0.90
2023-02-06T05:37:40.317Z,0.70
2023-02-06T05:40:08.025Z,0.60
2023-02-06T05:42:36.521Z,0.50
2023-02-06T05:45:03.878Z,0.40
2023-02-06T05:47:33.441Z,0.50
2023-02-06T05:50:00.857Z,0.60
2023-02-06T05:52:28.178Z,0.70
2023-02-06T05:54:55.241Z,0.70
2023-02-06T05:57:22.492Z,0.70
2023-02-06T05:59:49.695Z,0.80
2023-02-06T06:02:17.286Z,0.80
2023-02-06T06:04:44.555Z,0.80
2023-02-06T06:10:16.922Z,1.00
2023-02-06T06:12:47.050Z,1.10
2023-02-06T06:16:00.684Z,1.00
2023-02-06T06:18:27.911Z,1.00
2023-02-06T06:20:57.439Z,1.00
2023-02-06T06:23:34.961Z,1.20
2023-02-06T06:26:02.261Z,1.30
2023-02-06T06:28:37.447Z,1.40
2023-02-06T06:31:06.970Z,1.60
2023-02-06T06:33:34.299Z,1.70
2023-02-06T06:36:05.173Z,1.80
2023-02-06T06:38:32.404Z,1.80
2023-02-06T06:41:00.849Z,1.90
2023-02-06T06:43:28.226Z,2.00
2023-02-06T06:46:00.725Z,2.10
2023-02-06T06:48:28.398Z,2.10
2023-02-06T06:50:58.598Z,1.80
2023-02-06T06:53:25.842Z,1.80
2023-02-06T06:55:52.935Z,1.70
2023-02-06T06:58:29.589Z,1.80
2023-02-06T07:00:57.089Z,1.90
2023-02-06T07:03:24.354Z,2.10
2023-02-06T07:05:54.520Z,2.20
2023-02-06T07:08:21.631Z,2.30
2023-02-06T07:11:03.739Z,2.40
2023-02-06T07:13:32.018Z,2.30
2023-02-06T07:15:59.777Z,2.40
2023-02-06T07:18:27.139Z,2.50
2023-02-06T07:21:04.020Z,2.50
2023-02-06T07:23:54.181Z,2.40
2023-02-06T07:26:22.461Z,2.40
2023-02-06T07:28:52.864Z,2.20
2023-02-06T07:31:19.895Z,2.20
2023-02-06T07:33:47.331Z,2.30
2023-02-06T07:36:15.580Z,2.20
2023-02-06T07:38:42.743Z,2.20
2023-02-06T07:41:12.589Z,2.40
2023-02-06T07:43:40.369Z,2.60
2023-02-06T07:46:07.590Z,2.70
2023-02-06T07:48:34.833Z,3.00
2023-02-06T07:51:36.465Z,3.20
2023-02-06T07:54:03.701Z,3.20
2023-02-06T07:56:45.924Z,3.10
2023-02-06T07:59:16.773Z,3.40
2023-02-06T08:01:44.128Z,3.60
2023-02-06T08:04:11.892Z,3.40
2023-02-06T08:06:50.204Z,3.40
2023-02-06T08:09:41.281Z,3.20
2023-02-06T08:12:56.611Z,3.10
2023-02-06T08:15:23.705Z,3.00
2023-02-06T08:17:50.987Z,2.90
2023-02-06T08:20:18.567Z,2.90
2023-02-06T08:22:46.857Z,2.90
2023-02-06T08:25:17.825Z,3.00
2023-02-06T08:28:07.024Z,2.80
2023-02-06T08:30:44.214Z,2.80
2023-02-06T08:33:11.878Z,2.70
2023-02-06T08:35:39.388Z,2.70
2023-02-06T08:38:07.874Z,2.60
2023-02-06T08:40:35.009Z,2.70
2023-02-06T08:43:02.386Z,2.90
2023-02-06T08:45:30.499Z,2.90
2023-02-06T08:48:00.585Z,2.70
2023-02-06T08:50:36.323Z,2.40
2023-02-06T08:53:14.864Z,2.40
2023-02-06T08:58:33.440Z,2.90
2023-02-06T09:03:36.486Z,3.80
2023-02-06T09:06:14.875Z,4.10
2023-02-06T09:08:51.822Z,4.10
2023-02-06T09:11:21.001Z,4.00
2023-02-06T09:22:59.226Z,4.90
2023-02-06T09:36:52.267Z,5.60
2023-02-06T09:39:21.803Z,6.50
2023-02-06T09:47:41.033Z,8.10
2023-02-06T09:50:21.953Z,9.50
2023-02-06T09:53:10.147Z,10.20
2023-02-06T09:55:41.530Z,9.60
2023-02-06T09:58:49.059Z,8.80
2023-02-06T10:01:30.275Z,8.00
2023-02-06T10:04:16.445Z,7.00
2023-02-06T10:07:09.739Z,6.60
2023-02-06T10:09:53.380Z,6.30
2023-02-06T10:12:59.377Z,5.90
2023-02-06T10:16:24.020Z,5.80
2023-02-06T10:19:05.368Z,5.70
2023-02-06T10:21:47.824Z,5.80
2023-02-06T10:24:34.568Z,5.90
2023-02-06T10:27:04.256Z,6.00
2023-02-06T10:29:42.443Z,6.10
2023-02-06T10:32:34.533Z,6.40
2023-02-06T10:35:37.024Z,7.30
2023-02-06T10:38:12.310Z,9.00
2023-02-06T10:41:09.540Z,10.20
2023-02-06T10:44:08.985Z,10.30
2023-02-06T10:46:49.509Z,11.40
2023-02-06T10:50:38.669Z,11.90
2023-02-06T10:54:11.058Z,13.80
2023-02-06T10:57:06.206Z,14.40
2023-02-06T11:00:26.905Z,15.50
2023-02-06T11:03:51.886Z,16.30
2023-02-06T11:06:30.859Z,15.30
2023-02-06T11:09:00.025Z,13.90
2023-02-06T11:11:31.182Z,12.60
2023-02-06T11:14:18.216Z,11.60
2023-02-06T11:16:46.024Z,12.20
2023-02-06T11:19:30.588Z,12.50
2023-02-06T11:22:26.619Z,11.90
2023-02-06T11:27:56.042Z,10.80
2023-02-06T12:21:33.090Z,17.60
2023-02-06T12:24:06.755Z,15.40
2023-02-06T12:26:35.398Z,14.40
2023-02-06T12:29:10.156Z,15.00
2023-02-06T12:32:17.468Z,15.60
2023-02-06T12:34:58.516Z,16.60
2023-02-06T12:37:48.683Z,17.50
2023-02-06T12:40:46.447Z,16.70
2023-02-06T12:43:18.722Z,15.70
2023-02-06T12:45:49.873Z,14.40
2023-02-06T12:48:29.992Z,13.50
2023-02-06T12:51:49.536Z,12.80
2023-02-06T12:54:22.992Z,13.10
2023-02-06T12:57:02.136Z,13.90
2023-02-06T12:59:58.266Z,14.60
2023-02-06T13:02:44.335Z,15.40
2023-02-06T13:05:39.821Z,15.60
2023-02-06T13:08:17.643Z,14.60
2023-02-06T13:11:03.016Z,13.30
2023-02-06T13:14:09.044Z,12.20
2023-02-06T13:16:41.845Z,11.50
2023-02-06T13:19:32.137Z,11.20
2023-02-06T13:22:44.768Z,10.80
2023-02-06T13:25:39.142Z,10.20
2023-02-06T13:31:07.448Z,9.50
2023-02-06T13:33:48.899Z,10.00
2023-02-06T13:36:28.740Z,10.80
2023-02-06T13:39:00.749Z,11.10
2023-02-06T13:41:29.391Z,11.60
2023-02-06T13:44:17.917Z,12.10
2023-02-06T13:47:23.112Z,12.20
2023-02-06T13:50:48.849Z,11.70
2023-02-06T13:53:29.614Z,10.90
2023-02-06T13:56:10.598Z,9.90
2023-02-06T13:58:44.626Z,9.50
2023-02-06T14:01:41.294Z,9.10
2023-02-06T14:04:10.375Z,9.00
2023-02-06T14:06:49.315Z,8.80
2023-02-06T14:16:23.316Z,8.00
2023-02-06T14:19:09.148Z,7.80
2023-02-06T14:30:21.759Z,7.40
2023-02-06T14:32:53.014Z,7.50
2023-02-06T14:35:32.063Z,7.50
2023-02-06T14:38:27.807Z,7.70
2023-02-06T14:40:56.953Z,7.80
2023-02-06T14:43:28.776Z,7.70
2023-02-06T14:46:07.033Z,7.50
2023-02-06T14:48:57.754Z,7.30
2023-02-06T14:51:30.506Z,7.10
2023-02-06T14:54:00.615Z,7.00
2023-02-06T14:56:30.342Z,6.80
2023-02-06T14:59:08.226Z,6.60
2023-02-06T15:01:36.303Z,6.50
2023-02-06T15:04:23.059Z,6.50
2023-02-06T15:06:58.399Z,6.30
2023-02-06T15:09:28.519Z,6.20
2023-02-06T15:11:57.968Z,6.20
2023-02-06T15:14:29.993Z,6.10
2023-02-06T15:17:03.747Z,5.90
2023-02-06T15:19:32.837Z,5.80
2023-02-06T15:22:07.942Z,5.70
2023-02-06T15:24:59.452Z,5.70
2023-02-06T15:27:35.315Z,5.70
2023-02-06T15:30:09.247Z,5.70
2023-02-06T15:32:39.662Z,5.80
2023-02-06T15:35:37.445Z,5.80
2023-02-06T15:38:08.701Z,5.80
2023-02-06T15:40:42.484Z,5.90
2023-02-06T15:43:22.664Z,5.90
2023-02-06T15:45:52.000Z,5.90
2023-02-06T15:48:20.323Z,5.90
2023-02-06T15:51:03.509Z,6.00
2023-02-06T15:53:39.461Z,5.90
2023-02-06T15:56:20.796Z,5.90
2023-02-06T15:58:49.874Z,5.90
2023-02-06T16:01:18.955Z,5.80
2023-02-06T16:03:55.365Z,5.60
2023-02-06T16:06:46.376Z,5.50
2023-02-06T16:09:21.870Z,5.50
2023-02-06T16:11:57.055Z,5.60
2023-02-06T16:14:38.497Z,5.60
2023-02-06T16:17:37.364Z,5.50
2023-02-06T16:20:41.787Z,5.50
2023-02-06T16:23:29.212Z,5.40
2023-02-06T16:26:02.514Z,5.40
2023-02-06T16:28:31.400Z,5.40
2023-02-06T16:31:04.812Z,5.40
2023-02-06T16:33:42.889Z,5.30
2023-02-06T16:36:14.386Z,5.30
2023-02-06T16:38:46.333Z,5.40
2023-02-06T16:41:37.378Z,5.50
2023-02-06T16:44:07.991Z,5.60
2023-02-06T16:46:35.086Z,5.70
2023-02-06T16:49:02.484Z,5.70
2023-02-06T16:51:30.482Z,5.70
2023-02-06T16:53:58.503Z,5.60
2023-02-06T16:56:37.998Z,5.50
2023-02-06T16:59:05.302Z,5.20
2023-02-06T17:01:35.733Z,5.10
2023-02-06T17:04:03.175Z,5.20
2023-02-06T17:06:30.760Z,5.30
2023-02-06T17:09:02.233Z,5.50
2023-02-06T17:11:31.020Z,5.50
2023-02-06T17:14:00.787Z,5.60
2023-02-06T17:16:29.769Z,5.70
2023-02-06T17:18:57.146Z,5.70
2023-02-06T17:21:25.223Z,5.60
2023-02-06T17:23:52.770Z,5.30
2023-02-06T17:26:22.063Z,5.00
2023-02-06T17:28:50.558Z,4.80
2023-02-06T17:31:22.166Z,4.90
2023-02-06T17:34:00.735Z,5.00
2023-02-06T17:36:33.616Z,5.20
2023-02-06T17:39:00.883Z,5.20
2023-02-06T17:41:28.650Z,5.20
2023-02-06T17:43:55.885Z,5.10
2023-02-06T17:46:23.516Z,5.00
2023-02-06T17:48:50.889Z,4.90
2023-02-06T17:51:18.123Z,4.80
2023-02-06T17:53:48.481Z,4.70
2023-02-06T17:56:15.965Z,4.80
2023-02-06T17:58:43.627Z,4.80
2023-02-06T18:01:12.525Z,4.90
2023-02-06T18:03:41.349Z,4.90
2023-02-06T18:06:08.913Z,5.00
2023-02-06T18:08:36.258Z,5.10
2023-02-06T18:11:18.324Z,5.20
2023-02-06T18:13:46.635Z,5.20
2023-02-06T18:16:17.715Z,5.20
2023-02-06T18:18:45.099Z,5.20
2023-02-06T18:21:12.400Z,5.20
2023-02-06T18:23:39.709Z,5.10
2023-02-06T18:26:08.900Z,5.10
2023-02-06T18:28:37.055Z,5.10
2023-02-06T18:31:04.951Z,5.00
2023-02-06T18:33:34.153Z,5.00
2023-02-06T18:36:05.538Z,5.10
2023-02-06T18:38:33.723Z,5.10
2023-02-06T18:41:06.248Z,5.20
2023-02-06T18:43:33.865Z,5.20
2023-02-06T18:46:11.354Z,5.00
2023-02-06T18:48:38.481Z,4.90
2023-02-06T18:51:07.823Z,4.80
2023-02-06T18:53:34.906Z,4.60
2023-02-06T18:56:03.364Z,4.60
2023-02-06T18:58:30.739Z,4.60
2023-02-06T19:00:58.050Z,4.60
2023-02-06T19:03:25.418Z,4.70
2023-02-06T19:05:52.577Z,4.80
2023-02-06T19:08:23.561Z,4.70
2023-02-06T19:10:51.924Z,4.50
2023-02-06T19:13:19.401Z,4.40
2023-02-06T19:15:47.927Z,4.40
2023-02-06T19:18:19.762Z,4.40
2023-02-06T19:20:52.235Z,4.40
2023-02-06T19:23:19.485Z,4.40
2023-02-06T19:25:47.080Z,4.20
2023-02-06T19:28:14.427Z,4.20
2023-02-06T19:30:41.957Z,4.30
2023-02-06T19:33:09.420Z,4.30
2023-02-06T19:35:40.596Z,4.30
2023-02-06T19:38:07.741Z,4.30
2023-02-06T19:40:36.937Z,4.30
2023-02-06T19:43:04.461Z,4.20
2023-02-06T19:45:31.725Z,4.20
2023-02-06T19:47:58.969Z,4.20
2023-02-06T19:50:26.224Z,4.30
2023-02-06T19:52:53.390Z,4.30
2023-02-06T19:55:20.720Z,4.30
2023-02-06T19:57:48.823Z,4.30
2023-02-06T20:00:16.443Z,4.40
2023-02-06T20:02:43.895Z,4.40
2023-02-06T20:05:14.261Z,4.30
2023-02-06T20:07:41.680Z,4.30
2023-02-06T20:10:09.425Z,4.30
2023-02-06T20:12:38.162Z,4.40
2023-02-06T20:15:09.905Z,4.30
2023-02-06T20:17:38.134Z,4.20
2023-02-06T20:20:06.789Z,4.20
2023-02-06T20:22:34.357Z,4.30
2023-02-06T20:25:02.837Z,4.30
2023-02-06T20:27:33.741Z,4.40
2023-02-06T20:30:03.610Z,4.40
2023-02-06T20:32:33.367Z,4.40
2023-02-06T20:35:02.152Z,4.30
2023-02-06T20:37:29.836Z,4.30
2023-02-06T20:40:07.264Z,4.30
2023-02-06T20:42:37.276Z,4.20
2023-02-06T20:45:05.091Z,4.20
2023-02-06T20:47:32.665Z,4.10
2023-02-06T20:50:02.090Z,4.10
2023-02-06T20:52:30.577Z,4.20
2023-02-06T20:54:58.295Z,4.20
2023-02-06T20:57:25.930Z,4.30
2023-02-06T20:59:53.947Z,4.20
2023-02-06T21:02:21.563Z,4.10
2023-02-06T21:04:52.641Z,4.00
2023-02-06T21:07:21.150Z,4.00
2023-02-06T21:09:52.748Z,4.00
2023-02-06T21:12:21.613Z,4.00
2023-02-06T21:14:48.784Z,4.00
2023-02-06T21:17:16.024Z,4.10
2023-02-06T21:19:46.939Z,4.10
2023-02-06T21:22:14.371Z,4.20
2023-02-06T21:24:41.591Z,4.20
2023-02-06T21:27:10.423Z,4.30
2023-02-06T21:29:38.311Z,4.40
2023-02-06T21:32:13.592Z,4.40
2023-02-06T21:34:45.116Z,4.30
2023-02-06T21:37:14.655Z,4.20
2023-02-06T21:39:42.030Z,4.10
2023-02-06T21:42:10.561Z,4.10
2023-02-06T21:44:41.200Z,4.00
2023-02-06T21:47:10.273Z,4.00
2023-02-06T21:49:38.019Z,3.90
2023-02-06T21:52:07.619Z,3.90
2023-02-06T21:54:34.919Z,4.00
2023-02-06T21:57:02.231Z,4.00
2023-02-06T21:59:31.092Z,4.10
2023-02-06T22:01:58.426Z,4.10
2023-02-06T22:04:25.854Z,4.10
2023-02-06T22:06:55.872Z,4.20
2023-02-06T22:09:23.609Z,4.10
2023-02-06T22:11:50.958Z,4.10
2023-02-06T22:14:18.725Z,4.00
2023-02-06T22:16:48.888Z,4.00
2023-02-06T22:19:16.529Z,3.80
2023-02-06T22:21:46.695Z,3.80
2023-02-06T22:24:14.117Z,3.80
2023-02-06T22:26:41.839Z,3.90
2023-02-06T22:29:11.773Z,3.80
2023-02-06T22:31:39.102Z,3.70
2023-02-06T22:34:06.427Z,3.70
2023-02-06T22:36:34.220Z,3.70
2023-02-06T22:39:03.591Z,3.70
2023-02-06T22:41:32.151Z,3.80
2023-02-06T22:43:59.595Z,3.50
2023-02-06T22:46:27.679Z,3.40
2023-02-06T22:48:54.997Z,3.30
2023-02-06T22:51:23.830Z,3.30
2023-02-06T22:53:51.377Z,3.40
2023-02-06T22:56:27.180Z,3.40
2023-02-06T22:58:55.529Z,3.50
2023-02-06T23:01:23.992Z,3.60
2023-02-06T23:03:54.787Z,3.70
2023-02-06T23:06:22.150Z,3.70
2023-02-06T23:08:49.501Z,3.60
2023-02-06T23:11:16.961Z,3.70
2023-02-06T23:14:07.240Z,3.70
2023-02-06T23:16:35.207Z,3.60
2023-02-06T23:19:04.768Z,3.50
2023-02-06T23:21:34.202Z,3.50
2023-02-06T23:24:01.372Z,3.50
2023-02-06T23:26:29.134Z,3.50
2023-02-06T23:28:59.764Z,3.50
2023-02-06T23:31:27.486Z,3.50
2023-02-06T23:33:55.832Z,3.50
2023-02-06T23:36:28.503Z,3.40
2023-02-06T23:38:55.895Z,3.40
2023-02-06T23:41:27.349Z,3.30
2023-02-06T23:43:58.322Z,3.30
2023-02-06T23:46:25.649Z,3.30
2023-02-06T23:48:53.324Z,3.30
2023-02-06T23:51:20.898Z,3.30
2023-02-06T23:53:48.903Z,3.30
2023-02-06T23:56:21.479Z,3.40
2023-02-06T23:58:48.768Z,3.50
